createdAt,value
2022-09-10T00:01:35.667Z,6.50
2022-09-10T00:04:02.922Z,5.30
2022-09-10T00:06:29.710Z,7.00
2022-09-10T00:08:57.850Z,6.60
2022-09-10T00:11:25.846Z,5.60
2022-09-10T00:13:52.621Z,5.40
2022-09-10T00:16:20.636Z,6.10
2022-09-10T00:18:47.637Z,7.50
2022-09-10T00:21:19.918Z,6.80
2022-09-10T00:24:19.170Z,7.20
2022-09-10T00:26:46.070Z,6.70
2022-09-10T00:29:15.902Z,5.90
2022-09-10T00:31:43.554Z,5.70
2022-09-10T00:34:11.433Z,4.90
2022-09-10T00:36:43.110Z,5.90
2022-09-10T00:39:12.075Z,5.70
2022-09-10T00:41:40.388Z,6.60
2022-09-10T00:44:29.874Z,5.80
2022-09-10T00:48:03.142Z,5.70
2022-09-10T00:50:31.082Z,6.30
2022-09-10T00:53:02.315Z,5.80
2022-09-10T00:55:28.998Z,5.70
2022-09-10T00:57:57.064Z,6.40
2022-09-10T01:00:23.799Z,6.30
2022-09-10T01:02:50.588Z,6.60
2022-09-10T01:05:17.485Z,5.70
2022-09-10T01:07:44.831Z,5.70
2022-09-10T01:10:22.684Z,6.10
2022-09-10T01:12:58.551Z,8.80
2022-09-10T01:15:31.009Z,6.20
2022-09-10T01:18:03.456Z,6.10
2022-09-10T01:21:02.853Z,5.50
2022-09-10T01:24:00.189Z,6.10
2022-09-10T01:26:49.849Z,5.70
2022-09-10T01:29:39.156Z,7.80
2022-09-10T01:32:10.140Z,5.90
2022-09-10T01:34:43.581Z,6.30
2022-09-10T01:39:41.271Z,6.50
2022-09-10T01:42:08.462Z,5.00
2022-09-10T01:44:55.138Z,5.70
2022-09-10T01:47:51.461Z,5.90
2022-09-10T01:50:39.943Z,5.00
2022-09-10T01:53:25.603Z,6.00
2022-09-10T01:56:09.290Z,5.10
2022-09-10T01:58:44.632Z,5.00
2022-09-10T02:01:35.194Z,5.30
2022-09-10T02:04:04.379Z,5.30
2022-09-10T02:06:32.948Z,6.20
2022-09-10T02:09:00.281Z,5.70
2022-09-10T02:11:28.202Z,4.50
2022-09-10T02:13:57.134Z,4.50
2022-09-10T02:16:48.345Z,5.30
2022-09-10T02:19:15.231Z,4.40
2022-09-10T02:21:42.313Z,6.50
2022-09-10T02:24:10.540Z,4.80
2022-09-10T02:26:45.060Z,5.50
2022-09-10T02:29:14.007Z,5.10
2022-09-10T02:31:41.394Z,4.60
2022-09-10T02:37:50.647Z,4.80
2022-09-10T02:40:20.760Z,4.00
2022-09-10T02:42:48.111Z,4.50
2022-09-10T02:45:19.018Z,4.00
2022-09-10T02:47:45.729Z,4.40
2022-09-10T02:50:12.642Z,3.70
2022-09-10T02:52:40.053Z,4.10
2022-09-10T02:55:08.528Z,4.20
2022-09-10T02:57:35.815Z,5.60
2022-09-10T03:00:03.236Z,4.10
2022-09-10T03:02:30.078Z,3.90
2022-09-10T03:04:56.880Z,5.20
2022-09-10T03:07:24.669Z,4.30
2022-09-10T03:09:51.368Z,3.70
2022-09-10T03:12:18.736Z,4.10
2022-09-10T03:14:47.442Z,3.80
2022-09-10T03:17:14.203Z,3.50
2022-09-10T03:19:40.885Z,3.80
2022-09-10T03:22:07.645Z,3.90
2022-09-10T03:24:34.385Z,3.80
2022-09-10T03:27:04.126Z,4.60
2022-09-10T03:29:30.882Z,4.90
2022-09-10T03:31:58.117Z,3.80
2022-09-10T03:34:24.969Z,4.10
2022-09-10T03:36:51.616Z,4.90
2022-09-10T03:39:19.385Z,4.10
2022-09-10T03:41:46.586Z,3.90
2022-09-10T03:44:14.229Z,3.70
2022-09-10T03:47:16.702Z,4.90
2022-09-10T03:49:43.482Z,5.70
2022-09-10T03:52:13.469Z,4.00
2022-09-10T03:54:40.766Z,4.60
2022-09-10T03:57:08.507Z,4.70
2022-09-10T03:59:35.412Z,3.90
2022-09-10T04:02:03.014Z,3.60
2022-09-10T04:04:31.877Z,4.10
2022-09-10T04:06:58.628Z,3.90
2022-09-10T04:09:25.362Z,3.50
2022-09-10T04:11:52.932Z,4.20
2022-09-10T04:14:21.845Z,3.50
2022-09-10T04:16:48.765Z,3.10
2022-09-10T04:19:16.095Z,3.60
2022-09-10T04:21:42.943Z,3.30
2022-09-10T04:24:12.050Z,3.50
2022-09-10T04:26:39.724Z,3.80
2022-09-10T04:29:07.124Z,3.90
2022-09-10T04:31:34.243Z,3.20
2022-09-10T04:34:08.269Z,3.30
2022-09-10T04:36:34.894Z,3.20
2022-09-10T04:39:02.176Z,3.30
2022-09-10T04:41:31.841Z,3.00
2022-09-10T04:44:00.288Z,3.10
2022-09-10T04:46:27.037Z,3.40
2022-09-10T04:48:55.621Z,3.10
2022-09-10T04:51:24.067Z,3.40
2022-09-10T04:53:53.341Z,3.30
2022-09-10T04:56:25.243Z,3.20
2022-09-10T04:58:54.834Z,3.70
2022-09-10T05:01:25.066Z,3.70
2022-09-10T05:03:54.594Z,3.30
2022-09-10T05:06:21.331Z,3.20
2022-09-10T05:08:48.534Z,3.90
2022-09-10T05:11:21.648Z,3.60
2022-09-10T05:13:51.045Z,3.30
2022-09-10T05:16:21.348Z,3.80
2022-09-10T05:18:48.525Z,3.50
2022-09-10T05:21:15.646Z,3.40
2022-09-10T05:23:43.538Z,3.10
2022-09-10T05:26:11.007Z,3.20
2022-09-10T05:28:37.971Z,3.10
2022-09-10T05:31:07.401Z,3.30
2022-09-10T05:33:34.530Z,3.70
2022-09-10T05:36:01.338Z,3.20
2022-09-10T05:38:28.547Z,3.80
2022-09-10T05:40:57.135Z,3.40
2022-09-10T05:43:23.819Z,3.10
2022-09-10T05:45:52.352Z,3.50
2022-09-10T05:48:20.103Z,3.20
2022-09-10T05:50:47.926Z,3.50
2022-09-10T05:53:15.012Z,3.40
2022-09-10T05:55:43.960Z,3.30
2022-09-10T05:58:10.723Z,3.00
2022-09-10T06:00:38.305Z,3.50
2022-09-10T06:03:06.069Z,3.70
2022-09-10T06:05:50.391Z,3.40
2022-09-10T06:08:21.269Z,3.60
2022-09-10T06:11:04.644Z,3.60
2022-09-10T06:13:38.981Z,3.40
2022-09-10T06:16:07.492Z,3.00
2022-09-10T06:18:34.689Z,3.40
2022-09-10T06:21:04.530Z,3.40
2022-09-10T06:23:31.487Z,3.80
2022-09-10T06:26:12.455Z,3.40
2022-09-10T06:28:40.343Z,3.20
2022-09-10T06:31:20.778Z,3.40
2022-09-10T06:33:54.697Z,3.70
2022-09-10T06:36:25.232Z,3.60
2022-09-10T06:38:58.247Z,3.10
2022-09-10T06:41:25.645Z,4.10
2022-09-10T06:43:58.323Z,3.80
2022-09-10T06:47:17.849Z,3.80
2022-09-10T06:49:24.895Z,4.00
2022-09-10T06:51:52.575Z,4.10
2022-09-10T06:54:19.891Z,3.80
2022-09-10T06:56:52.826Z,4.10
2022-09-10T06:59:19.733Z,3.50
2022-09-10T07:01:48.469Z,3.80
2022-09-10T07:04:17.120Z,3.90
2022-09-10T07:06:46.017Z,3.90
2022-09-10T07:09:16.125Z,4.30
2022-09-10T07:11:51.870Z,4.70
2022-09-10T07:14:18.756Z,4.20
2022-09-10T07:16:47.245Z,3.90
2022-09-10T07:19:15.443Z,4.40
2022-09-10T07:21:44.923Z,4.40
2022-09-10T07:24:12.759Z,4.90
2022-09-10T07:26:42.483Z,4.30
2022-09-10T13:07:34.292Z,12.50
2022-09-10T13:10:22.963Z,12.50
2022-09-10T13:12:55.298Z,11.10
2022-09-10T13:15:26.659Z,11.40
2022-09-10T13:17:55.006Z,12.50
2022-09-10T13:20:22.084Z,12.40
2022-09-10T13:23:10.119Z,10.90
2022-09-10T13:25:44.261Z,14.80
2022-09-10T13:28:29.886Z,13.40
2022-09-10T13:31:12.024Z,12.80
2022-09-10T13:33:53.821Z,12.10
2022-09-10T13:36:51.108Z,12.70
2022-09-10T13:39:57.461Z,12.60
2022-09-10T13:42:43.503Z,12.80
2022-09-10T13:45:30.756Z,13.50
2022-09-10T14:07:46.509Z,10.00
2022-09-10T14:10:15.069Z,11.60
2022-09-10T14:12:41.760Z,10.20
2022-09-10T14:15:17.283Z,10.40
2022-09-10T14:17:47.831Z,11.50
2022-09-10T14:20:28.173Z,12.20
2022-09-10T14:23:03.251Z,11.70
2022-09-10T14:25:37.944Z,12.20
2022-09-10T14:28:24.604Z,11.70
2022-09-10T14:30:52.156Z,12.00
2022-09-10T14:33:28.360Z,12.20
2022-09-10T14:35:55.692Z,12.20
2022-09-10T14:38:23.391Z,12.60
2022-09-10T14:40:53.964Z,12.60
2022-09-10T14:43:29.054Z,12.40
2022-09-10T14:45:55.926Z,13.40
2022-09-10T14:48:59.745Z,11.00
2022-09-10T14:51:26.442Z,11.30
2022-09-10T14:53:57.050Z,10.10
2022-09-10T14:56:35.180Z,9.80
2022-09-10T14:59:11.843Z,9.90
2022-09-10T15:01:43.806Z,10.50
2022-09-10T15:04:23.018Z,10.60
2022-09-10T15:06:53.629Z,9.40
2022-09-10T15:09:20.540Z,9.30
2022-09-10T15:11:56.023Z,8.50
2022-09-10T15:14:22.779Z,8.80
2022-09-10T15:16:52.897Z,9.30
2022-09-10T15:19:20.356Z,8.90
2022-09-10T15:22:02.064Z,9.60
2022-09-10T15:24:29.609Z,8.60
2022-09-10T15:26:56.529Z,9.30
2022-09-10T15:29:23.812Z,8.40
2022-09-10T15:31:51.377Z,10.20
2022-09-10T15:34:19.481Z,8.70
2022-09-10T15:36:46.557Z,8.10
2022-09-10T15:39:13.427Z,8.40
2022-09-10T15:41:43.707Z,9.60
2022-09-10T15:44:10.638Z,8.90
2022-09-10T15:46:40.564Z,8.30
2022-09-10T15:49:08.047Z,9.80
2022-09-10T15:51:34.700Z,8.70
2022-09-10T15:54:04.890Z,9.40
2022-09-10T15:56:32.678Z,10.40
2022-09-10T15:58:59.469Z,9.50
2022-09-10T16:01:28.186Z,8.60
2022-09-10T16:03:56.839Z,9.50
2022-09-10T16:06:25.507Z,9.60
2022-09-10T16:08:56.656Z,8.00
2022-09-10T16:11:24.504Z,9.80
2022-09-10T16:13:51.208Z,8.50
2022-09-10T16:16:23.057Z,7.90
2022-09-10T16:18:52.875Z,9.30
2022-09-10T16:21:22.489Z,10.30
2022-09-10T16:23:50.343Z,9.30
2022-09-10T16:26:20.188Z,8.10
2022-09-10T16:28:50.933Z,8.50
2022-09-10T16:31:25.244Z,8.00
2022-09-10T16:33:54.986Z,9.00
2022-09-10T16:36:23.757Z,9.00
2022-09-10T16:38:57.775Z,7.20
2022-09-10T16:41:27.159Z,9.30
2022-09-10T16:43:55.670Z,7.80
2022-09-10T16:46:22.497Z,8.50
2022-09-10T16:48:51.891Z,8.50
2022-09-10T16:51:20.151Z,8.50
2022-09-10T16:53:52.216Z,8.30
2022-09-10T16:56:19.250Z,8.40
2022-09-10T16:58:46.470Z,8.60
2022-09-10T17:01:13.408Z,7.90
2022-09-10T17:03:43.715Z,8.00
2022-09-10T17:06:26.335Z,9.00
2022-09-10T17:08:57.897Z,9.80
2022-09-10T17:11:29.327Z,8.80
2022-09-10T17:14:01.267Z,9.10
2022-09-10T17:16:39.294Z,9.70
2022-09-10T17:19:14.322Z,10.30
2022-09-10T17:21:43.294Z,9.40
2022-09-10T17:24:11.068Z,8.70
2022-09-10T17:26:38.071Z,10.60
2022-09-10T17:29:09.949Z,10.70
2022-09-10T17:31:36.903Z,11.70
2022-09-10T17:34:03.788Z,9.80
2022-09-10T17:36:31.017Z,12.20
2022-09-10T17:39:00.525Z,10.20
2022-09-10T17:41:27.808Z,11.00
2022-09-10T17:43:54.786Z,12.90
2022-09-10T17:46:23.380Z,11.20
2022-09-10T17:48:53.638Z,11.40
2022-09-10T18:12:45.231Z,9.20
2022-09-10T18:15:12.057Z,10.10
2022-09-10T18:17:38.920Z,10.40
2022-09-10T18:20:06.147Z,11.00
2022-09-10T18:22:33.082Z,10.00
2022-09-10T18:24:59.741Z,9.40
2022-09-10T18:27:26.525Z,10.70
2022-09-10T18:29:53.217Z,12.60
2022-09-10T18:32:19.899Z,11.80
2022-09-10T18:34:46.589Z,11.20
2022-09-10T18:37:13.981Z,13.00
2022-09-10T18:39:40.672Z,12.50
2022-09-10T18:42:07.406Z,12.30
2022-09-10T18:44:35.209Z,13.50
2022-09-10T18:47:02.030Z,14.10
2022-09-10T18:49:29.243Z,15.20
2022-09-10T18:51:56.247Z,12.80
2022-09-10T18:54:23.683Z,13.90
2022-09-10T18:56:50.561Z,13.10
2022-09-10T18:59:20.259Z,13.90
2022-09-10T19:01:47.584Z,13.40
2022-09-10T19:04:22.416Z,12.80
2022-09-10T19:06:49.268Z,14.60
2022-09-10T19:09:17.815Z,11.70
2022-09-10T19:11:45.528Z,12.50
2022-09-10T19:14:23.412Z,12.90
2022-09-10T19:16:51.511Z,12.50
2022-09-10T19:19:23.517Z,12.60
2022-09-10T19:21:51.793Z,12.90
2022-09-10T19:24:25.353Z,12.00
2022-09-10T19:27:00.501Z,13.50
2022-09-10T19:29:27.821Z,10.30
2022-09-10T19:31:54.937Z,12.10
2022-09-10T19:34:22.150Z,12.60
2022-09-10T19:36:49.141Z,11.00
2022-09-10T19:39:16.763Z,12.50
2022-09-10T19:41:44.363Z,11.30
2022-09-10T19:44:12.716Z,10.70
2022-09-10T19:46:41.287Z,10.80
2022-09-10T19:49:10.270Z,11.00
2022-09-10T19:51:38.064Z,10.40
2022-09-10T19:54:06.645Z,9.70
2022-09-10T19:56:36.442Z,9.80
2022-09-10T19:59:08.561Z,10.00
2022-09-10T20:01:37.745Z,7.80
2022-09-10T20:04:05.976Z,9.50
2022-09-10T20:06:33.634Z,10.20
2022-09-10T20:09:00.447Z,8.90
2022-09-10T20:11:33.060Z,7.70
2022-09-10T20:14:07.873Z,7.80
2022-09-10T20:16:42.914Z,9.50
2022-09-10T20:19:11.107Z,9.30
2022-09-10T20:21:37.776Z,7.40
2022-09-10T20:24:06.180Z,8.30
2022-09-10T20:26:33.983Z,6.80
2022-09-10T20:29:02.089Z,8.80
2022-09-10T20:31:29.575Z,8.70
2022-09-10T20:33:57.494Z,8.20
2022-09-10T20:36:24.925Z,9.90
2022-09-10T20:38:52.296Z,8.50
2022-09-10T20:41:19.130Z,8.10
2022-09-10T20:43:52.015Z,8.70
2022-09-10T20:46:20.448Z,7.90
2022-09-10T20:48:49.364Z,8.10
2022-09-10T20:51:18.006Z,8.10
2022-09-10T20:53:44.780Z,10.10
2022-09-10T20:56:17.596Z,10.00
2022-09-10T20:58:44.664Z,10.50
2022-09-10T21:01:12.963Z,7.70
2022-09-10T21:03:40.983Z,9.10
2022-09-10T21:06:08.550Z,11.30
2022-09-10T21:08:36.476Z,7.80
2022-09-10T21:11:11.051Z,8.00
2022-09-10T21:13:38.101Z,9.30
2022-09-10T21:16:10.664Z,10.00
2022-09-10T21:18:38.134Z,9.60
2022-09-10T21:21:11.698Z,8.40
2022-09-10T21:26:08.348Z,8.60
2022-09-10T21:28:35.507Z,8.20
2022-09-10T21:31:03.536Z,9.10
2022-09-10T21:33:30.623Z,8.50
2022-09-10T21:36:08.317Z,11.20
2022-09-10T21:38:35.230Z,8.10
2022-09-10T21:41:03.644Z,8.90
2022-09-10T21:43:34.622Z,9.20
2022-09-10T21:46:02.161Z,9.50
2022-09-10T21:48:32.262Z,9.00
2022-09-10T21:50:59.392Z,8.80
2022-09-10T21:53:28.658Z,8.20
2022-09-10T21:55:58.876Z,8.80
2022-09-10T21:58:28.900Z,9.30
2022-09-10T22:00:58.969Z,9.40
2022-09-10T22:03:26.785Z,8.50
2022-09-10T22:05:53.432Z,8.10
2022-09-10T22:08:20.143Z,9.10
2022-09-10T22:10:47.233Z,9.10
2022-09-10T22:13:13.933Z,8.90
2022-09-10T22:15:41.570Z,9.80
2022-09-10T22:18:08.989Z,10.20
2022-09-10T22:20:36.161Z,9.10
2022-09-10T22:23:03.777Z,8.90
2022-09-10T22:25:31.052Z,10.10
2022-09-10T22:27:58.302Z,8.50
2022-09-10T22:30:28.067Z,10.20
2022-09-10T22:32:56.572Z,9.20
2022-09-10T22:35:26.610Z,7.90
2022-09-10T22:37:57.029Z,10.40
2022-09-10T22:40:24.424Z,9.30
2022-09-10T22:42:51.802Z,8.50
2022-09-10T22:45:21.108Z,8.70
2022-09-10T22:47:48.215Z,8.10
2022-09-10T22:50:15.382Z,10.50
2022-09-10T22:52:43.702Z,9.10
2022-09-10T22:55:10.458Z,9.10
2022-09-10T22:57:38.628Z,10.60
2022-09-10T23:00:06.216Z,8.20
2022-09-10T23:02:32.872Z,9.00
2022-09-10T23:05:00.026Z,8.90
2022-09-10T23:07:26.705Z,9.60
2022-09-10T23:09:53.365Z,8.90
2022-09-10T23:12:22.577Z,8.90
2022-09-10T23:14:49.253Z,8.90
2022-09-10T23:17:18.515Z,9.20
2022-09-10T23:19:48.636Z,9.00
2022-09-10T23:22:15.348Z,8.50
2022-09-10T23:24:41.982Z,10.00
2022-09-10T23:27:08.817Z,9.00
2022-09-10T23:29:36.553Z,9.20
2022-09-10T23:32:03.215Z,11.00
2022-09-10T23:34:29.908Z,9.30
2022-09-10T23:36:56.603Z,9.50
2022-09-10T23:39:23.880Z,9.30
2022-09-10T23:41:52.416Z,10.00
2022-09-10T23:44:19.769Z,9.50
2022-09-10T23:46:46.651Z,8.30
2022-09-10T23:49:13.476Z,8.90
2022-09-10T23:51:40.144Z,9.90
2022-09-10T23:54:06.870Z,9.70
2022-09-10T23:56:33.508Z,9.50
2022-09-10T23:59:00.160Z,9.20
